Time;durP1;ratioP1;P1;durP2;ratioP2;P2;SDS_P1;SDS_P2;PMS_P1;PMS_P2;Temp;Humidity;BMP_temperature;BMP_pressure;BME280_temperature;BME280_humidity;BME280_pressure;Samples;Min_cycle;Max_cycle;Signal;HPM_P1;HPM_P2
2023/07/02 00:01:43;;;;;;;6.18;3.60;;;15.60;99.90;;;;;;5123408;27;20050;-64
2023/07/02 00:04:10;;;;;;;7.18;3.85;;;15.60;99.90;;;;;;5123235;27;20042;-63
2023/07/02 00:06:40;;;;;;;6.55;3.72;;;15.50;99.90;;;;;;5139271;27;20053;-65
2023/07/02 00:09:12;;;;;;;6.97;3.90;;;15.50;99.90;;;;;;5128902;27;20115;-63
2023/07/02 00:11:39;;;;;;;8.85;4.22;;;15.50;99.90;;;;;;5127605;27;20492;-63
2023/07/02 00:14:06;;;;;;;7.82;4.13;;;15.50;99.90;;;;;;5125161;27;20042;-62
2023/07/02 00:16:31;;;;;;;8.43;4.38;;;15.50;99.90;;;;;;5117120;27;20034;-63
2023/07/02 00:18:57;;;;;;;7.75;4.20;;;15.60;99.90;;;;;;5147378;27;20384;-63
2023/07/02 00:21:27;;;;;;;6.68;4.13;;;15.60;99.90;;;;;;5117253;27;20030;-63
2023/07/02 00:23:56;;;;;;;12.02;4.13;;;15.60;99.90;;;;;;5140773;27;20445;-63
2023/07/02 00:26:26;;;;;;;10.57;4.00;;;15.60;99.90;;;;;;5124457;27;20049;-64
2023/07/02 00:28:53;;;;;;;4.43;3.50;;;15.60;99.90;;;;;;5121170;27;20043;-63
2023/07/02 00:31:19;;;;;;;9.48;4.10;;;15.60;99.90;;;;;;5117252;27;20438;-65
2023/07/02 00:33:45;;;;;;;10.48;4.05;;;15.60;99.90;;;;;;5117057;27;20062;-63
2023/07/02 00:36:16;;;;;;;7.45;3.85;;;15.50;99.90;;;;;;5130972;27;20035;-63
2023/07/02 00:38:49;;;;;;;8.15;4.00;;;15.50;99.90;;;;;;5117972;27;20035;-63
2023/07/02 00:41:16;;;;;;;10.20;4.20;;;15.50;99.90;;;;;;5115089;27;20038;-64
2023/07/02 00:43:44;;;;;;;6.85;4.15;;;15.40;99.90;;;;;;5135991;27;20063;-63
2023/07/02 00:46:21;;;;;;;11.23;4.80;;;15.40;99.90;;;;;;5120761;27;20042;-64
2023/07/02 00:48:56;;;;;;;10.32;5.38;;;15.30;99.90;;;;;;5120892;27;20100;-63
2023/07/02 00:51:27;;;;;;;13.82;5.07;;;15.30;99.90;;;;;;5120274;27;20053;-63
2023/07/02 00:53:56;;;;;;;15.25;5.20;;;15.20;99.90;;;;;;5124428;27;20043;-63
2023/07/02 00:56:22;;;;;;;9.70;4.85;;;15.20;99.90;;;;;;5120616;27;20046;-62
2023/07/02 00:58:50;;;;;;;15.35;5.45;;;15.10;99.90;;;;;;5123791;27;20039;-62
2023/07/02 01:01:18;;;;;;;12.52;5.35;;;15.10;99.90;;;;;;5150407;27;20038;-63
2023/07/02 01:04:01;;;;;;;11.13;5.00;;;15.10;99.90;;;;;;5147407;27;20415;-63
2023/07/02 01:06:29;;;;;;;13.38;5.50;;;15.00;99.90;;;;;;5132851;27;20031;-63
2023/07/02 01:08:56;;;;;;;12.18;4.78;;;14.90;99.90;;;;;;5128033;27;20050;-65
2023/07/02 01:11:27;;;;;;;10.82;5.35;;;14.90;99.90;;;;;;5118676;27;20035;-63
2023/07/02 01:13:55;;;;;;;10.00;5.53;;;14.80;99.90;;;;;;5116200;27;20113;-63
2023/07/02 01:16:22;;;;;;;9.15;4.80;;;14.70;99.90;;;;;;5128990;27;20031;-63
2023/07/02 01:18:50;;;;;;;11.70;5.10;;;14.70;99.90;;;;;;5124712;27;20046;-63
2023/07/02 01:21:18;;;;;;;16.52;6.38;;;14.60;99.90;;;;;;5133511;27;20510;-63
2023/07/02 01:23:44;;;;;;;14.60;5.43;;;14.50;99.90;;;;;;5122197;27;20040;-64
2023/07/02 01:26:10;;;;;;;12.55;5.88;;;14.50;99.90;;;;;;5122951;27;20039;-65
2023/07/02 01:28:38;;;;;;;13.60;6.25;;;14.40;99.90;;;;;;5123306;27;20386;-64
2023/07/02 01:31:05;;;;;;;15.50;6.38;;;14.40;99.90;;;;;;5122818;27;20397;-63
2023/07/02 01:33:31;;;;;;;14.00;5.70;;;14.40;99.90;;;;;;5122490;27;20131;-63
2023/07/02 01:35:57;;;;;;;19.63;6.40;;;14.30;99.90;;;;;;5107545;27;20046;-63
2023/07/02 01:38:22;;;;;;;15.82;6.28;;;14.30;99.90;;;;;;5131035;27;20493;-64
2023/07/02 01:40:48;;;;;;;14.55;6.97;;;14.30;99.90;;;;;;5108136;27;20052;-63
2023/07/02 01:43:14;;;;;;;18.38;6.45;;;14.20;99.90;;;;;;5121064;27;20554;-63
2023/07/02 01:45:42;;;;;;;18.55;6.85;;;14.20;99.90;;;;;;5126033;27;20091;-63
2023/07/02 01:48:07;;;;;;;16.00;7.03;;;14.20;99.90;;;;;;5121622;27;20039;-64
2023/07/02 01:50:33;;;;;;;16.80;6.30;;;14.10;99.90;;;;;;5130821;27;20497;-64
2023/07/02 01:52:59;;;;;;;15.35;6.55;;;14.10;99.90;;;;;;5125826;27;20071;-63
2023/07/02 01:55:25;;;;;;;19.88;7.47;;;14.00;99.90;;;;;;5124251;27;20042;-63
2023/07/02 01:57:50;;;;;;;19.42;8.20;;;14.00;99.90;;;;;;5121079;27;20039;-63
2023/07/02 02:00:17;;;;;;;19.08;7.00;;;13.90;99.90;;;;;;5124085;27;20039;-63
2023/07/02 02:02:43;;;;;;;20.23;7.38;;;14.00;99.90;;;;;;5123784;27;20047;-63
2023/07/02 02:05:09;;;;;;;16.15;6.60;;;13.90;99.90;;;;;;5120282;27;20041;-64
2023/07/02 02:07:36;;;;;;;18.92;7.05;;;13.90;99.90;;;;;;5122650;27;20051;-63
2023/07/02 02:10:03;;;;;;;21.05;8.20;;;13.90;99.90;;;;;;5110966;28;20062;-63
2023/07/02 02:12:30;;;;;;;19.48;7.25;;;13.90;99.90;;;;;;5110623;28;20134;-64
2023/07/02 02:14:55;;;;;;;18.88;6.72;;;13.90;99.90;;;;;;5111643;28;20093;-62
2023/07/02 02:17:21;;;;;;;21.73;7.25;;;13.80;99.90;;;;;;5110584;28;20428;-62
2023/07/02 02:19:47;;;;;;;22.38;7.20;;;13.80;99.90;;;;;;5105947;28;20093;-63
2023/07/02 02:22:12;;;;;;;14.73;6.60;;;13.80;99.90;;;;;;5103768;28;20054;-63
2023/07/02 02:24:38;;;;;;;17.70;7.22;;;13.80;99.90;;;;;;5107392;28;20391;-63
2023/07/02 02:27:04;;;;;;;22.67;7.25;;;13.70;99.90;;;;;;5110512;28;20038;-63
2023/07/02 02:29:29;;;;;;;19.60;6.85;;;13.70;99.90;;;;;;5111299;28;20122;-64
2023/07/02 02:31:55;;;;;;;20.73;7.38;;;13.60;99.90;;;;;;5112602;28;20435;-65
2023/07/02 02:34:21;;;;;;;19.90;7.22;;;13.70;99.90;;;;;;5108003;28;20051;-63
2023/07/02 02:36:47;;;;;;;18.83;6.78;;;13.70;99.90;;;;;;5106037;28;20118;-63
2023/07/02 02:39:13;;;;;;;18.33;7.65;;;13.60;99.90;;;;;;5102591;28;20031;-63
2023/07/02 02:41:39;;;;;;;23.10;7.90;;;13.70;99.90;;;;;;5100924;28;20562;-63
2023/07/02 02:44:05;;;;;;;18.92;7.25;;;13.70;99.90;;;;;;5101143;28;20135;-63
2023/07/02 02:46:31;;;;;;;25.27;8.35;;;13.60;99.90;;;;;;5109447;28;20122;-64
2023/07/02 02:48:57;;;;;;;19.35;7.38;;;13.60;99.90;;;;;;5108335;28;20065;-63
2023/07/02 02:51:22;;;;;;;25.02;8.70;;;13.60;99.90;;;;;;5103967;28;20043;-63
2023/07/02 02:53:48;;;;;;;20.45;7.65;;;13.60;99.90;;;;;;5109561;28;20105;-63
2023/07/02 02:56:14;;;;;;;24.25;8.05;;;13.50;99.90;;;;;;5108805;28;20040;-64
2023/07/02 02:58:40;;;;;;;23.35;8.13;;;13.50;99.90;;;;;;5108403;28;20141;-63
2023/07/02 03:01:10;;;;;;;25.17;8.15;;;13.60;99.90;;;;;;5102970;28;20028;-63
2023/07/02 03:03:39;;;;;;;21.30;7.85;;;13.60;99.90;;;;;;5101193;28;20051;-63
2023/07/02 03:06:05;;;;;;;20.92;7.72;;;13.50;99.90;;;;;;5102809;28;20883;-63
2023/07/02 03:08:31;;;;;;;20.50;7.60;;;13.60;99.90;;;;;;5115435;27;20047;-64
2023/07/02 03:10:57;;;;;;;18.90;7.43;;;13.50;99.90;;;;;;5126349;27;20103;-62
2023/07/02 03:13:22;;;;;;;20.42;7.18;;;13.50;99.90;;;;;;5122112;27;20573;-64
2023/07/02 03:15:48;;;;;;;20.42;7.72;;;13.50;99.90;;;;;;5144295;27;20091;-63
2023/07/02 03:18:14;;;;;;;21.50;8.30;;;13.50;99.90;;;;;;5133829;27;20034;-63
2023/07/02 03:20:39;;;;;;;19.02;7.03;;;13.50;99.90;;;;;;5118329;27;20046;-64
2023/07/02 03:23:05;;;;;;;20.13;7.72;;;13.50;99.90;;;;;;5123397;27;20059;-65
2023/07/02 03:25:31;;;;;;;23.65;8.63;;;13.50;99.90;;;;;;5122549;27;20500;-63
2023/07/02 03:27:56;;;;;;;21.13;7.20;;;13.40;99.90;;;;;;5120460;27;20454;-63
2023/07/02 03:30:22;;;;;;;16.98;7.35;;;13.40;99.90;;;;;;5144055;27;20043;-63
2023/07/02 03:32:47;;;;;;;19.00;7.22;;;13.40;99.90;;;;;;5119585;27;20458;-64
2023/07/02 03:35:13;;;;;;;15.10;6.32;;;13.40;99.90;;;;;;5123650;27;20051;-63
2023/07/02 03:37:41;;;;;;;20.48;7.05;;;13.40;99.90;;;;;;5121143;27;20035;-63
2023/07/02 03:40:08;;;;;;;17.23;6.75;;;13.40;99.90;;;;;;5121652;27;20420;-63
2023/07/02 03:42:34;;;;;;;17.65;6.90;;;13.40;99.90;;;;;;5130474;27;20047;-62
2023/07/02 03:44:59;;;;;;;22.02;7.05;;;13.40;99.90;;;;;;5139100;27;20442;-63
2023/07/02 03:47:25;;;;;;;16.85;7.00;;;13.30;99.90;;;;;;5120676;27;20034;-62
2023/07/02 03:49:50;;;;;;;17.73;7.43;;;13.30;99.90;;;;;;5122237;27;20034;-63
2023/07/02 03:52:16;;;;;;;17.25;7.22;;;13.40;99.90;;;;;;5125715;27;20052;-63
2023/07/02 03:54:42;;;;;;;19.85;7.65;;;13.40;99.90;;;;;;5118416;27;20035;-63
2023/07/02 03:57:07;;;;;;;20.90;7.07;;;13.40;99.90;;;;;;5118981;27;20046;-62
2023/07/02 03:59:34;;;;;;;20.50;6.70;;;13.40;99.90;;;;;;5117456;27;20035;-63
2023/07/02 04:01:59;;;;;;;22.85;7.68;;;13.40;99.90;;;;;;5111368;27;20125;-63
2023/07/02 04:04:25;;;;;;;18.50;6.95;;;13.40;99.90;;;;;;5120685;27;20115;-63
2023/07/02 04:06:50;;;;;;;18.95;7.38;;;13.40;99.90;;;;;;5131769;27;20034;-64
2023/07/02 04:09:18;;;;;;;20.45;7.20;;;13.50;99.90;;;;;;5146537;27;20046;-63
2023/07/02 04:11:43;;;;;;;22.45;6.88;;;13.50;99.90;;;;;;5108307;27;20622;-64
2023/07/02 04:14:09;;;;;;;21.27;7.40;;;13.50;99.90;;;;;;5126194;27;20099;-64
2023/07/02 04:16:35;;;;;;;21.00;7.07;;;13.50;99.90;;;;;;5134731;27;20050;-64
2023/07/02 04:19:00;;;;;;;21.20;7.38;;;13.50;99.90;;;;;;5145576;27;20168;-63
2023/07/02 04:21:26;;;;;;;24.23;7.75;;;13.60;99.90;;;;;;5121815;27;20038;-63
2023/07/02 04:23:52;;;;;;;22.17;7.53;;;13.70;99.90;;;;;;5122257;27;20043;-63
2023/07/02 04:26:17;;;;;;;21.27;7.63;;;13.70;99.90;;;;;;5120974;27;20066;-63
2023/07/02 04:28:43;;;;;;;19.25;7.78;;;13.70;99.90;;;;;;5122294;27;20051;-63
2023/07/02 04:31:09;;;;;;;19.02;6.78;;;13.60;99.90;;;;;;5118004;27;20053;-63
2023/07/02 04:33:35;;;;;;;19.58;7.38;;;13.60;99.90;;;;;;5123264;27;20035;-63
2023/07/02 04:36:04;;;;;;;22.70;7.40;;;13.60;99.90;;;;;;5121439;27;20046;-63
2023/07/02 04:38:30;;;;;;;19.10;7.38;;;13.60;99.90;;;;;;5140741;27;20041;-63
2023/07/02 04:41:04;;;;;;;20.05;7.15;;;13.60;99.90;;;;;;5126606;27;20389;-63
2023/07/02 04:43:33;;;;;;;21.25;7.07;;;13.70;99.90;;;;;;5125488;27;20043;-66
2023/07/02 04:45:59;;;;;;;17.80;6.82;;;13.80;99.90;;;;;;5143232;27;20046;-63
2023/07/02 04:48:24;;;;;;;20.60;7.28;;;13.90;99.90;;;;;;5127944;27;20035;-63
2023/07/02 04:50:50;;;;;;;20.02;6.88;;;14.00;99.90;;;;;;5121573;27;20168;-64
2023/07/02 04:53:16;;;;;;;20.60;6.88;;;14.10;99.90;;;;;;5123835;27;20062;-63
2023/07/02 04:55:42;;;;;;;20.60;6.95;;;14.20;99.90;;;;;;5135705;27;20073;-63
2023/07/02 04:58:08;;;;;;;18.27;7.25;;;14.30;99.90;;;;;;5124258;27;20035;-63
2023/07/02 05:00:33;;;;;;;18.58;6.97;;;14.40;99.90;;;;;;5114773;27;20092;-63
2023/07/02 05:02:59;;;;;;;21.65;7.30;;;14.60;99.90;;;;;;5121386;27;20038;-64
2023/07/02 05:05:25;;;;;;;18.67;7.60;;;14.60;99.90;;;;;;5120936;27;20039;-63
2023/07/02 05:07:50;;;;;;;19.48;7.40;;;14.70;99.90;;;;;;5119460;27;20497;-63
2023/07/02 05:10:16;;;;;;;20.67;7.90;;;14.80;99.90;;;;;;5140330;27;20053;-64
2023/07/02 05:12:42;;;;;;;15.18;6.45;;;14.90;99.90;;;;;;5120699;27;20090;-63
2023/07/02 05:15:08;;;;;;;20.27;7.32;;;15.00;99.90;;;;;;5118409;27;20118;-63
2023/07/02 05:17:35;;;;;;;21.73;7.50;;;15.10;99.90;;;;;;5128763;27;20481;-63
2023/07/02 05:20:03;;;;;;;19.42;6.82;;;15.20;99.90;;;;;;5101343;27;20031;-63
2023/07/02 05:22:29;;;;;;;20.17;7.68;;;15.30;99.90;;;;;;5124684;27;20130;-63
2023/07/02 05:24:54;;;;;;;20.70;6.93;;;15.40;99.90;;;;;;5141050;27;20059;-64
2023/07/02 05:27:20;;;;;;;20.25;7.25;;;15.50;99.90;;;;;;5119135;27;20083;-63
2023/07/02 05:29:46;;;;;;;21.73;7.82;;;15.60;99.90;;;;;;5118809;27;20050;-65
2023/07/02 05:32:12;;;;;;;21.25;6.80;;;15.70;99.90;;;;;;5120592;27;20046;-63
2023/07/02 05:34:37;;;;;;;19.10;6.68;;;15.70;99.90;;;;;;5121843;27;20043;-64
2023/07/02 05:37:03;;;;;;;17.02;6.45;;;15.80;99.90;;;;;;5138906;27;20035;-63
2023/07/02 05:39:29;;;;;;;21.92;7.95;;;15.90;99.90;;;;;;5121677;27;20038;-64
2023/07/02 05:41:55;;;;;;;17.88;6.55;;;16.00;99.90;;;;;;5121077;27;20077;-63
2023/07/02 05:44:21;;;;;;;21.92;6.82;;;16.10;99.90;;;;;;5119970;27;20042;-63
2023/07/02 05:46:47;;;;;;;20.88;6.93;;;16.20;99.90;;;;;;5126008;27;20050;-65
2023/07/02 05:49:12;;;;;;;18.25;7.28;;;16.20;99.90;;;;;;5124309;27;20619;-63
2023/07/02 05:51:38;;;;;;;20.05;6.80;;;16.30;99.90;;;;;;5124522;27;20045;-63
2023/07/02 05:54:04;;;;;;;18.60;6.47;;;16.30;99.90;;;;;;5119965;27;20034;-64
2023/07/02 05:56:29;;;;;;;17.13;6.35;;;16.40;99.90;;;;;;5126031;27;20170;-63
2023/07/02 05:58:55;;;;;;;19.70;6.72;;;16.50;99.90;;;;;;5120742;27;20065;-67
2023/07/02 06:01:20;;;;;;;18.98;6.30;;;16.60;99.90;;;;;;5124508;27;20039;-65
2023/07/02 06:03:49;;;;;;;22.73;6.55;;;16.70;99.90;;;;;;5120619;27;20050;-63
2023/07/02 06:06:15;;;;;;;19.20;6.93;;;16.80;99.90;;;;;;5136616;27;20043;-63
2023/07/02 06:08:40;;;;;;;21.35;6.65;;;16.80;99.90;;;;;;5120379;27;20043;-63
2023/07/02 06:11:06;;;;;;;17.38;6.70;;;16.90;99.90;;;;;;5118703;27;20035;-64
2023/07/02 06:13:32;;;;;;;17.55;6.78;;;16.90;99.90;;;;;;5117439;27;20475;-66
2023/07/02 06:15:57;;;;;;;19.08;7.07;;;17.00;99.90;;;;;;5119385;27;20664;-63
2023/07/02 06:18:23;;;;;;;18.98;6.40;;;17.00;99.90;;;;;;5122869;27;20058;-63
2023/07/02 06:20:49;;;;;;;16.10;6.55;;;17.00;99.90;;;;;;5119359;27;20070;-63
2023/07/02 06:23:14;;;;;;;20.92;6.68;;;17.00;99.90;;;;;;5124241;27;20062;-63
2023/07/02 06:25:40;;;;;;;20.13;7.35;;;17.30;99.90;;;;;;5118682;27;20039;-64
2023/07/02 06:28:05;;;;;;;16.23;6.30;;;17.10;99.90;;;;;;5114112;27;20051;-64
2023/07/02 06:30:31;;;;;;;17.40;6.50;;;16.90;99.90;;;;;;5123868;27;20466;-64
2023/07/02 06:32:57;;;;;;;16.48;6.38;;;16.80;99.90;;;;;;5121498;27;20032;-64
2023/07/02 06:35:22;;;;;;;17.90;6.88;;;16.90;99.90;;;;;;5122668;27;20031;-65
2023/07/02 06:37:48;;;;;;;16.00;5.93;;;16.90;99.90;;;;;;5118538;27;20046;-64
2023/07/02 06:40:14;;;;;;;19.27;6.18;;;16.90;99.90;;;;;;5122949;27;20053;-63
2023/07/02 06:42:40;;;;;;;17.00;5.85;;;17.00;99.90;;;;;;5099243;27;20062;-63
2023/07/02 06:45:06;;;;;;;16.05;5.93;;;17.10;99.90;;;;;;5128482;27;20552;-64
2023/07/02 06:47:32;;;;;;;14.02;5.55;;;17.20;99.90;;;;;;5105852;27;20086;-63
2023/07/02 06:49:59;;;;;;;14.48;5.50;;;17.30;99.90;;;;;;5120686;27;20066;-64
2023/07/02 06:52:24;;;;;;;16.15;4.90;;;17.40;99.90;;;;;;5120267;27;20118;-63
2023/07/02 06:54:50;;;;;;;12.82;5.68;;;17.40;99.90;;;;;;5114564;27;20126;-62
2023/07/02 06:57:16;;;;;;;11.95;5.03;;;17.60;99.90;;;;;;5121497;27;20027;-63
2023/07/02 06:59:41;;;;;;;15.85;5.25;;;17.70;99.90;;;;;;5125214;27;20043;-63
2023/07/02 07:02:07;;;;;;;13.85;5.47;;;17.70;99.90;;;;;;5126672;27;20024;-65
2023/07/02 07:04:34;;;;;;;17.58;5.55;;;17.50;99.90;;;;;;5130488;27;20047;-64
2023/07/02 07:07:01;;;;;;;14.30;5.22;;;17.50;99.90;;;;;;5128642;27;20091;-65
2023/07/02 07:09:27;;;;;;;14.57;5.20;;;17.30;99.90;;;;;;5131604;27;20071;-64
2023/07/02 07:11:52;;;;;;;16.60;5.68;;;17.20;99.90;;;;;;5125652;27;20092;-63
2023/07/02 07:14:18;;;;;;;16.27;5.80;;;17.10;99.90;;;;;;5141533;27;20050;-65
2023/07/02 07:16:43;;;;;;;21.08;6.80;;;17.00;99.90;;;;;;5136621;27;20063;-64
2023/07/02 07:19:09;;;;;;;14.77;5.25;;;16.90;99.90;;;;;;5123735;27;20038;-63
2023/07/02 07:21:35;;;;;;;13.30;5.50;;;16.80;99.90;;;;;;5120071;27;20047;-63
2023/07/02 07:24:01;;;;;;;14.88;6.18;;;16.70;99.90;;;;;;5124866;27;20045;-64
2023/07/02 07:26:26;;;;;;;12.93;5.07;;;16.70;99.90;;;;;;5114376;27;20038;-65
2023/07/02 07:28:54;;;;;;;12.18;4.68;;;16.60;99.90;;;;;;5116959;27;20070;-64
2023/07/02 07:31:20;;;;;;;12.82;4.88;;;16.50;99.90;;;;;;5137959;27;20392;-63
2023/07/02 07:33:45;;;;;;;11.93;4.30;;;16.80;99.90;;;;;;5129813;27;20043;-64
2023/07/02 07:36:11;;;;;;;12.35;4.25;;;17.10;99.90;;;;;;5142849;27;20068;-65
2023/07/02 07:38:37;;;;;;;11.73;3.97;;;17.30;99.90;;;;;;5132109;27;20030;-65
2023/07/02 07:41:02;;;;;;;12.88;4.88;;;17.50;99.90;;;;;;5134203;27;20500;-64
2023/07/02 07:43:28;;;;;;;9.15;3.75;;;17.80;99.90;;;;;;5118643;27;20043;-65
2023/07/02 07:45:54;;;;;;;11.63;3.97;;;18.10;99.90;;;;;;5118745;27;20045;-64
2023/07/02 07:48:21;;;;;;;13.43;3.67;;;18.20;99.90;;;;;;5132065;27;20575;-64
2023/07/02 07:50:47;;;;;;;11.85;3.63;;;18.20;99.90;;;;;;5117627;27;20035;-65
2023/07/02 07:53:13;;;;;;;12.25;4.10;;;18.10;99.90;;;;;;5147524;27;20087;-63
2023/07/02 07:55:38;;;;;;;11.73;3.63;;;18.20;99.90;;;;;;5123831;27;20035;-64
2023/07/02 07:58:04;;;;;;;10.68;2.90;;;18.40;99.90;;;;;;5116011;27;20068;-64
2023/07/02 08:00:29;;;;;;;11.45;3.13;;;18.40;99.90;;;;;;5116432;27;20041;-64
2023/07/02 08:02:55;;;;;;;8.60;3.47;;;18.60;99.90;;;;;;5135464;27;20031;-63
2023/07/02 08:05:22;;;;;;;11.95;3.35;;;18.90;99.90;;;;;;5130222;27;20130;-64
2023/07/02 08:07:48;;;;;;;11.32;3.35;;;19.10;99.90;;;;;;5145743;27;20035;-64
2023/07/02 08:10:14;;;;;;;11.55;3.17;;;19.10;99.90;;;;;;5132538;27;20054;-63
2023/07/02 08:12:39;;;;;;;9.18;2.97;;;18.70;99.60;;;;;;5115176;27;20058;-63
2023/07/02 08:15:06;;;;;;;6.50;2.75;;;18.50;99.70;;;;;;5106764;27;20045;-64
2023/07/02 08:17:31;;;;;;;8.52;3.28;;;18.00;98.80;;;;;;5127874;27;20047;-65
2023/07/02 08:19:57;;;;;;;14.02;3.58;;;18.20;99.70;;;;;;5132646;27;20049;-63
2023/07/02 08:22:23;;;;;;;10.02;3.70;;;18.30;99.90;;;;;;5131389;27;20035;-64
2023/07/02 08:24:49;;;;;;;10.43;3.15;;;18.20;99.90;;;;;;5147073;27;20033;-63
2023/07/02 08:27:19;;;;;;;6.57;2.95;;;18.20;99.90;;;;;;5112280;27;20134;-64
2023/07/02 08:29:45;;;;;;;8.18;3.03;;;18.20;99.90;;;;;;5114386;27;20031;-65
2023/07/02 08:32:11;;;;;;;8.32;2.70;;;17.90;99.60;;;;;;5118213;27;20077;-64
2023/07/02 08:34:37;;;;;;;8.85;2.78;;;17.70;99.90;;;;;;5128853;27;20494;-63
2023/07/02 08:37:02;;;;;;;13.70;3.42;;;17.70;99.90;;;;;;5111450;27;20133;-63
2023/07/02 08:39:28;;;;;;;11.43;3.85;;;17.50;99.90;;;;;;5124802;27;20087;-63
2023/07/02 08:41:54;;;;;;;10.52;3.55;;;17.50;99.90;;;;;;5118643;27;20430;-64
2023/07/02 08:44:23;;;;;;;8.60;3.03;;;17.30;99.90;;;;;;5112040;27;20095;-63
2023/07/02 08:46:50;;;;;;;8.48;3.03;;;17.30;99.90;;;;;;5124752;27;20087;-64
2023/07/02 08:49:17;;;;;;;11.38;3.03;;;17.20;99.90;;;;;;5143555;27;20045;-64
2023/07/02 08:51:45;;;;;;;8.10;3.08;;;17.20;99.90;;;;;;5119396;27;20115;-64
2023/07/02 08:54:11;;;;;;;10.00;3.10;;;17.10;99.90;;;;;;5123934;27;20175;-64
2023/07/02 08:56:38;;;;;;;11.23;3.42;;;17.10;99.90;;;;;;5119200;27;20043;-63
2023/07/02 08:59:09;;;;;;;11.48;3.40;;;17.10;99.90;;;;;;5111289;27;20035;-63
2023/07/02 09:01:48;;;;;;;9.75;3.30;;;17.00;99.90;;;;;;5114540;27;20048;-64
2023/07/02 09:04:20;;;;;;;10.98;3.50;;;17.00;99.90;;;;;;5126540;27;20047;-63
2023/07/02 09:06:49;;;;;;;15.85;4.35;;;17.00;99.90;;;;;;5133118;27;20034;-63
2023/07/02 09:09:15;;;;;;;8.77;3.60;;;17.00;99.90;;;;;;5123496;27;20385;-64
2023/07/02 09:11:49;;;;;;;12.18;3.80;;;17.20;99.90;;;;;;5097679;27;20039;-63
2023/07/02 09:14:26;;;;;;;14.82;4.70;;;17.20;99.90;;;;;;5111733;27;20042;-65
2023/07/02 09:17:09;;;;;;;11.65;4.03;;;17.10;99.90;;;;;;5124442;27;20075;-64
2023/07/02 09:19:35;;;;;;;;;;;17.00;99.90;;;;;;5103490;27;20041;-65
2023/07/02 09:22:01;;;;;;;13.45;4.22;;;16.90;99.90;;;;;;5141828;27;19915;-64
2023/07/02 09:24:29;;;;;;;10.57;3.80;;;16.90;99.90;;;;;;5127401;27;20045;-64
2023/07/02 09:26:59;;;;;;;15.32;4.80;;;17.00;99.90;;;;;;5124893;27;20042;-64
2023/07/02 09:29:32;;;;;;;14.98;5.55;;;17.10;99.90;;;;;;5137949;27;20530;-65
2023/07/02 09:32:07;;;;;;;10.43;3.97;;;17.30;99.90;;;;;;5118500;27;20049;-64
2023/07/02 09:34:35;;;;;;;12.45;4.28;;;17.40;99.90;;;;;;5120580;27;20172;-63
2023/07/02 09:37:03;;;;;;;21.92;5.40;;;17.60;99.90;;;;;;5131169;27;20042;-64
2023/07/02 09:39:36;;;;;;;9.60;3.85;;;17.60;99.90;;;;;;5132745;27;20043;-63
2023/07/02 09:42:05;;;;;;;10.32;3.97;;;17.60;99.90;;;;;;5122806;27;20114;-64
2023/07/02 09:44:32;;;;;;;11.90;3.65;;;17.50;99.90;;;;;;5129010;27;20059;-64
2023/07/02 09:47:04;;;;;;;10.20;3.78;;;17.40;99.90;;;;;;5125375;27;20073;-65
2023/07/02 09:49:38;;;;;;;11.80;3.83;;;17.40;99.90;;;;;;5144184;27;20035;-64
2023/07/02 09:52:06;;;;;;;9.02;3.40;;;17.30;99.90;;;;;;5108570;27;20050;-64
2023/07/02 09:54:32;;;;;;;9.88;3.58;;;17.30;99.90;;;;;;5119493;27;20050;-65
2023/07/02 09:57:01;;;;;;;12.25;3.83;;;17.30;99.90;;;;;;5125173;27;20039;-65
2023/07/02 09:59:28;;;;;;;9.63;3.60;;;17.30;99.90;;;;;;5128327;27;20118;-64
2023/07/02 10:01:54;;;;;;;12.20;3.60;;;17.20;99.90;;;;;;5140622;27;20385;-65
2023/07/02 10:04:23;;;;;;;13.27;4.20;;;17.10;99.90;;;;;;5141795;27;20435;-64
2023/07/02 10:06:52;;;;;;;11.35;3.97;;;17.00;99.90;;;;;;5126665;27;20050;-65
2023/07/02 10:09:37;;;;;;;14.25;3.75;;;16.90;99.90;;;;;;5144524;27;20064;-64
2023/07/02 10:12:24;;;;;;;10.23;3.72;;;16.80;99.90;;;;;;5119826;27;20043;-64
2023/07/02 10:14:52;;;;;;;12.05;3.83;;;16.70;99.90;;;;;;5120596;27;20500;-63
2023/07/02 10:17:24;;;;;;;10.23;3.75;;;16.60;99.90;;;;;;5131574;27;20030;-63
2023/07/02 10:19:51;;;;;;;12.13;5.20;;;16.40;99.90;;;;;;5127090;27;20073;-64
2023/07/02 10:22:17;;;;;;;11.43;3.95;;;16.40;99.90;;;;;;5120253;27;20161;-65
2023/07/02 10:25:03;;;;;;;11.65;4.18;;;16.60;99.90;;;;;;5127344;27;20144;-64
2023/07/02 10:27:39;;;;;;;13.60;4.28;;;16.90;99.90;;;;;;5130699;27;20158;-64
2023/07/02 10:30:07;;;;;;;15.93;4.32;;;17.10;99.90;;;;;;5125322;27;20035;-65
2023/07/02 10:32:34;;;;;;;10.60;4.00;;;17.30;99.90;;;;;;5130167;27;20105;-65
2023/07/02 10:35:13;;;;;;;13.00;4.15;;;17.30;99.90;;;;;;5106784;27;20053;-64
2023/07/02 10:37:39;;;;;;;11.68;3.83;;;17.20;99.90;;;;;;5132850;27;20186;-64
2023/07/02 10:40:09;;;;;;;13.02;3.70;;;17.10;99.90;;;;;;5119844;27;20121;-63
2023/07/02 10:42:47;;;;;;;9.75;3.97;;;17.10;99.90;;;;;;5125567;27;20454;-65
2023/07/02 10:45:13;;;;;;;10.85;3.67;;;17.30;99.90;;;;;;5127040;27;20042;-65
2023/07/02 10:47:42;;;;;;;9.13;4.10;;;17.70;99.90;;;;;;5118719;27;20482;-63
2023/07/02 10:50:34;;;;;;;11.35;3.63;;;17.80;99.90;;;;;;5122976;27;20118;-63
2023/07/02 10:53:00;;;;;;;11.48;3.88;;;17.80;99.90;;;;;;5121311;27;20061;-64
2023/07/02 10:55:27;;;;;;;7.78;3.22;;;17.70;99.90;;;;;;5119704;27;20035;-64
2023/07/02 10:58:07;;;;;;;12.57;3.72;;;17.60;99.90;;;;;;5139959;27;20039;-64
2023/07/02 11:00:42;;;;;;;9.90;3.13;;;17.70;99.90;;;;;;5133004;27;20043;-64
2023/07/02 11:03:19;;;;;;;8.52;2.60;;;17.70;99.90;;;;;;5146566;27;20068;-65
2023/07/02 11:05:46;;;;;;;7.95;2.80;;;17.90;99.90;;;;;;5150793;27;20552;-66
2023/07/02 11:08:12;;;;;;;8.80;2.85;;;17.90;99.90;;;;;;5125845;27;20042;-64
2023/07/02 11:10:38;;;;;;;7.18;2.90;;;17.80;99.90;;;;;;5103647;27;20047;-65
2023/07/02 11:13:17;;;;;;;7.93;2.65;;;17.60;99.90;;;;;;5126564;27;20939;-65
2023/07/02 11:15:45;;;;;;;12.50;3.45;;;17.60;99.90;;;;;;5122245;27;20118;-63
2023/07/02 11:18:15;;;;;;;7.47;3.00;;;17.60;99.90;;;;;;5124666;27;20363;-63
2023/07/02 11:20:43;;;;;;;9.75;3.65;;;17.50;99.90;;;;;;5117647;27;20069;-64
2023/07/02 11:23:22;;;;;;;10.75;3.22;;;17.50;99.90;;;;;;5117143;27;20474;-64
2023/07/02 11:26:01;;;;;;;9.18;2.97;;;17.50;99.90;;;;;;5104934;27;20508;-63
2023/07/02 11:28:28;;;;;;;6.53;2.58;;;17.60;99.90;;;;;;5127895;27;20039;-64
2023/07/02 11:30:54;;;;;;;9.07;2.83;;;17.60;99.70;;;;;;5126999;27;20035;-65
2023/07/02 11:33:40;;;;;;;7.78;2.75;;;17.70;99.90;;;;;;5121050;27;20062;-64
2023/07/02 11:36:07;;;;;;;7.28;2.75;;;17.70;99.00;;;;;;5129560;27;20087;-66
2023/07/02 11:38:36;;;;;;;8.35;2.85;;;17.60;99.70;;;;;;5119881;27;20042;-64
2023/07/02 11:41:05;;;;;;;6.68;2.47;;;17.60;99.90;;;;;;5107959;27;20055;-64
2023/07/02 11:43:32;;;;;;;8.13;2.78;;;17.60;99.80;;;;;;5114830;27;20121;-64
2023/07/02 11:45:57;;;;;;;6.53;2.30;;;17.60;99.60;;;;;;5140699;27;20076;-64
2023/07/02 11:48:23;;;;;;;7.38;2.83;;;17.60;99.00;;;;;;5131937;27;20042;-65
2023/07/02 11:50:49;;;;;;;7.85;2.20;;;17.60;99.50;;;;;;5119999;27;20035;-65
2023/07/02 11:53:14;;;;;;;6.93;2.28;;;17.90;99.90;;;;;;5123892;27;20051;-66
2023/07/02 11:55:40;;;;;;;7.85;2.75;;;17.90;98.70;;;;;;5139249;27;20039;-64
2023/07/02 11:58:05;;;;;;;6.68;2.60;;;17.90;99.00;;;;;;5122590;27;20035;-64
2023/07/02 12:00:31;;;;;;;8.90;2.47;;;17.80;99.00;;;;;;5119182;27;20065;-65
2023/07/02 12:02:57;;;;;;;6.32;2.50;;;17.70;99.40;;;;;;5118644;27;20174;-65
2023/07/02 12:05:22;;;;;;;6.82;2.40;;;17.60;99.90;;;;;;5128415;27;20045;-63
2023/07/02 12:07:48;;;;;;;7.95;2.80;;;17.60;99.90;;;;;;5128556;27;20034;-65
2023/07/02 12:10:14;;;;;;;8.50;2.72;;;17.60;99.50;;;;;;5123681;27;20135;-65
2023/07/02 12:12:39;;;;;;;10.38;2.80;;;17.50;99.80;;;;;;5111879;27;20052;-64
2023/07/02 12:15:05;;;;;;;7.57;2.47;;;17.40;99.90;;;;;;5110516;27;20972;-65
2023/07/02 12:17:31;;;;;;;8.10;3.25;;;17.40;99.90;;;;;;5110960;27;20066;-64
2023/07/02 12:19:57;;;;;;;7.30;2.75;;;17.40;99.90;;;;;;5111077;27;20075;-64
2023/07/02 12:22:23;;;;;;;10.43;3.13;;;17.50;99.90;;;;;;5110303;27;20090;-64
2023/07/02 12:24:53;;;;;;;7.75;2.58;;;17.60;99.90;;;;;;5120051;27;20066;-64
2023/07/02 12:27:19;;;;;;;8.00;3.00;;;17.60;99.70;;;;;;5122707;27;20031;-64
2023/07/02 12:29:44;;;;;;;9.85;3.03;;;17.60;99.30;;;;;;5125573;27;20113;-63
2023/07/02 12:32:10;;;;;;;10.48;3.55;;;17.50;99.50;;;;;;5130082;27;20408;-64
2023/07/02 12:34:36;;;;;;;9.88;3.40;;;17.50;99.90;;;;;;5123485;27;20039;-64
2023/07/02 12:37:01;;;;;;;10.82;3.33;;;17.50;99.90;;;;;;5120415;27;20046;-64
2023/07/02 12:39:27;;;;;;;8.20;2.97;;;17.60;99.90;;;;;;5113827;27;20035;-64
2023/07/02 12:41:52;;;;;;;8.98;3.22;;;17.90;99.90;;;;;;5118086;27;20046;-64